Time;durP1;ratioP1;P1;durP2;ratioP2;P2;SDS_P1;SDS_P2;PMS_P1;PMS_P2;Temp;Humidity;BMP_temperature;BMP_pressure;BME280_temperature;BME280_humidity;BME280_pressure;Samples;Min_cycle;Max_cycle;Signal;HPM_P1;HPM_P2
2021/05/24 00:01:00;;;;;;;2.53;2.33;;;27.60;57.40;;;;;;5101562;28;20039;-39
2021/05/24 00:03:26;;;;;;;2.27;2.00;;;27.60;57.40;;;;;;5088037;28;20060;-40
2021/05/24 00:05:52;;;;;;;2.20;2.00;;;27.60;57.40;;;;;;5085018;28;20050;-39
2021/05/24 00:08:18;;;;;;;2.40;2.20;;;27.60;57.40;;;;;;5092452;28;20248;-39
2021/05/24 00:10:45;;;;;;;2.30;2.10;;;27.60;57.40;;;;;;5103872;28;20059;-39
2021/05/24 00:13:12;;;;;;;2.50;2.30;;;27.60;57.40;;;;;;5105155;28;20028;-40
2021/05/24 00:15:43;;;;;;;2.38;2.17;;;27.60;57.50;;;;;;5104718;28;20934;-40
2021/05/24 00:18:09;;;;;;;2.30;2.10;;;27.60;57.50;;;;;;5104950;28;20047;-39
2021/05/24 00:20:39;;;;;;;2.38;2.17;;;27.50;57.40;;;;;;5104550;28;20020;-41
2021/05/24 00:23:06;;;;;;;2.53;2.33;;;27.60;57.50;;;;;;5104899;28;20032;-40
2021/05/24 00:25:32;;;;;;;2.33;2.13;;;27.50;57.40;;;;;;5104833;28;20102;-41
2021/05/24 00:28:00;;;;;;;2.23;2.03;;;27.50;57.50;;;;;;5104809;28;20058;-40
2021/05/24 00:30:32;;;;;;;2.30;2.10;;;27.50;57.50;;;;;;5102929;28;20119;-43
2021/05/24 00:33:01;;;;;;;2.58;2.38;;;27.50;57.60;;;;;;5091447;28;20036;-39
2021/05/24 00:35:27;;;;;;;2.55;2.35;;;27.50;57.50;;;;;;5084558;28;20033;-40
2021/05/24 00:37:54;;;;;;;2.63;2.43;;;27.50;57.60;;;;;;5088568;28;20088;-43
2021/05/24 00:40:20;;;;;;;2.30;2.10;;;27.50;57.60;;;;;;5104474;28;20035;-40
2021/05/24 00:42:46;;;;;;;2.70;2.50;;;27.50;57.70;;;;;;5104502;28;20024;-41
2021/05/24 00:45:13;;;;;;;2.30;2.10;;;27.50;57.70;;;;;;5103053;28;20032;-40
2021/05/24 00:47:39;;;;;;;2.72;2.53;;;27.50;57.70;;;;;;5104312;28;20157;-42
2021/05/24 00:50:06;;;;;;;2.70;2.50;;;27.50;57.70;;;;;;5104164;28;20048;-43
2021/05/24 00:52:32;;;;;;;2.92;2.65;;;27.40;58.30;;;;;;5104433;28;20039;-41
2021/05/24 00:54:58;;;;;;;2.60;2.40;;;27.40;57.70;;;;;;5104301;28;20055;-41
2021/05/24 00:57:24;;;;;;;2.43;2.23;;;27.40;57.80;;;;;;5104423;28;20024;-40
2021/05/24 00:59:50;;;;;;;3.20;2.90;;;27.40;57.80;;;;;;5102701;28;20680;-39
2021/05/24 01:02:17;;;;;;;3.22;2.92;;;27.40;57.80;;;;;;5096587;28;20055;-40
2021/05/24 01:04:43;;;;;;;2.75;2.55;;;27.40;57.80;;;;;;5084016;28;20138;-40
2021/05/24 01:07:09;;;;;;;2.88;2.67;;;27.40;58.30;;;;;;5083772;28;20088;-42
2021/05/24 01:09:35;;;;;;;3.20;2.90;;;27.40;57.80;;;;;;5102199;28;20036;-39
2021/05/24 01:12:01;;;;;;;2.57;2.30;;;27.30;57.70;;;;;;5103469;28;20020;-39
2021/05/24 01:14:28;;;;;;;3.00;2.70;;;27.30;57.70;;;;;;5103816;28;20035;-40
2021/05/24 01:16:54;;;;;;;2.90;2.60;;;27.30;57.70;;;;;;5103824;28;20795;-39
2021/05/24 01:19:21;;;;;;;2.83;2.28;;;27.30;57.70;;;;;;5103811;28;20059;-40
2021/05/24 01:21:47;;;;;;;2.78;2.58;;;27.30;57.60;;;;;;5103334;28;20496;-40
2021/05/24 01:24:14;;;;;;;3.03;2.60;;;27.20;57.60;;;;;;5102503;28;20113;-40
2021/05/24 01:26:40;;;;;;;3.08;2.80;;;27.20;57.60;;;;;;5102382;28;20056;-39
2021/05/24 01:29:06;;;;;;;3.60;2.80;;;27.20;57.60;;;;;;5103758;28;20032;-39
2021/05/24 01:31:33;;;;;;;3.00;2.80;;;27.20;57.60;;;;;;5101854;28;20114;-39
2021/05/24 01:34:01;;;;;;;3.33;3.03;;;27.20;57.70;;;;;;5084326;28;20036;-40
2021/05/24 01:36:28;;;;;;;2.97;2.78;;;27.20;57.60;;;;;;5099056;28;20028;-39
2021/05/24 01:38:54;;;;;;;;;;;27.20;57.80;;;;;;5090980;28;20027;-40
2021/05/24 01:41:20;;;;;;;2.90;2.70;;;27.20;57.80;;;;;;5098608;28;19908;-39
2021/05/24 01:43:46;;;;;;;3.10;2.80;;;27.10;57.70;;;;;;5103696;28;20058;-40
2021/05/24 01:46:12;;;;;;;3.10;2.90;;;27.10;57.70;;;;;;5103198;28;20449;-41
2021/05/24 01:48:39;;;;;;;3.30;3.00;;;27.10;57.70;;;;;;5103377;28;20032;-42
2021/05/24 01:51:05;;;;;;;3.10;2.90;;;27.10;57.70;;;;;;5102812;28;20059;-40
2021/05/24 01:53:32;;;;;;;3.10;2.88;;;27.10;57.70;;;;;;5103220;28;20284;-40
2021/05/24 01:55:58;;;;;;;3.42;3.13;;;27.10;57.70;;;;;;5103235;28;20024;-42
2021/05/24 01:58:24;;;;;;;3.28;2.88;;;27.00;57.70;;;;;;5103549;28;20031;-40
2021/05/24 02:00:51;;;;;;;3.30;3.00;;;27.00;57.60;;;;;;5102775;28;20020;-40
2021/05/24 02:03:17;;;;;;;3.30;3.00;;;27.00;57.70;;;;;;5103176;28;20100;-40
2021/05/24 02:05:43;;;;;;;3.60;3.30;;;27.00;57.80;;;;;;5103087;28;20276;-41
2021/05/24 02:08:09;;;;;;;3.65;3.35;;;27.00;57.80;;;;;;5103254;28;20663;-39
2021/05/24 02:10:37;;;;;;;3.63;3.33;;;27.00;57.80;;;;;;5102912;28;20699;-40
2021/05/24 02:13:04;;;;;;;3.45;3.15;;;27.00;57.60;;;;;;5103156;28;20046;-42
2021/05/24 02:15:34;;;;;;;3.55;3.25;;;26.90;57.70;;;;;;5102616;28;20501;-39
2021/05/24 02:18:01;;;;;;;2.75;2.55;;;26.90;57.80;;;;;;5102984;28;20037;-40
2021/05/24 02:20:27;;;;;;;3.33;3.03;;;26.90;57.80;;;;;;5103020;28;20027;-40
2021/05/24 02:22:59;;;;;;;3.17;2.83;;;26.90;57.60;;;;;;5102416;28;20051;-39
2021/05/24 02:25:25;;;;;;;2.88;2.67;;;26.80;57.60;;;;;;5102877;28;20034;-41
2021/05/24 02:27:52;;;;;;;3.50;3.20;;;26.80;58.20;;;;;;5102946;28;20103;-39
2021/05/24 02:30:19;;;;;;;3.60;3.30;;;26.80;57.70;;;;;;5101263;28;20051;-44
2021/05/24 02:32:46;;;;;;;3.72;3.42;;;26.80;57.70;;;;;;5102633;28;20261;-42
2021/05/24 02:35:13;;;;;;;3.80;3.45;;;26.80;57.60;;;;;;5107234;28;20028;-42
2021/05/24 02:37:42;;;;;;;;;;;26.80;57.60;;;;;;5123109;28;20032;-39
2021/05/24 02:40:09;;;;;;;3.72;3.42;;;26.70;57.70;;;;;;5106986;28;19911;-40
2021/05/24 02:42:36;;;;;;;3.60;3.30;;;26.70;57.70;;;;;;5106806;28;20048;-42
2021/05/24 02:45:07;;;;;;;3.63;3.33;;;26.70;57.80;;;;;;5105188;28;20028;-41
2021/05/24 02:47:33;;;;;;;3.92;3.58;;;26.70;57.80;;;;;;5106632;28;20024;-40
2021/05/24 02:49:59;;;;;;;3.65;3.35;;;26.70;57.80;;;;;;5106753;28;20051;-40
2021/05/24 02:52:25;;;;;;;4.20;3.83;;;26.70;57.80;;;;;;5106752;28;20036;-40
2021/05/24 02:54:52;;;;;;;4.22;3.83;;;26.70;57.80;;;;;;5106281;28;20031;-40
2021/05/24 02:57:18;;;;;;;4.15;3.75;;;26.70;57.80;;;;;;5106608;28;20573;-39
2021/05/24 02:59:44;;;;;;;4.05;3.65;;;26.60;57.70;;;;;;5106595;28;20024;-39
2021/05/24 03:02:15;;;;;;;4.68;4.28;;;26.60;57.80;;;;;;5106299;28;20043;-41
2021/05/24 03:04:41;;;;;;;4.55;4.15;;;26.60;57.80;;;;;;5106411;28;20020;-40
2021/05/24 03:07:08;;;;;;;5.30;4.80;;;26.50;57.80;;;;;;5106439;28;20043;-39
2021/05/24 03:09:34;;;;;;;4.70;4.30;;;26.50;57.80;;;;;;5106174;28;20083;-39
2021/05/24 03:12:00;;;;;;;4.47;4.05;;;26.50;57.80;;;;;;5104699;28;20204;-42
2021/05/24 03:14:26;;;;;;;4.60;4.20;;;26.50;57.90;;;;;;5106031;28;20024;-39
2021/05/24 03:16:53;;;;;;;4.47;4.07;;;26.40;58.30;;;;;;5106181;28;20024;-40
2021/05/24 03:19:19;;;;;;;4.68;3.92;;;26.40;57.80;;;;;;5106331;28;20473;-40
2021/05/24 03:21:45;;;;;;;4.70;4.30;;;26.40;58.40;;;;;;5106154;28;20039;-40
2021/05/24 03:24:11;;;;;;;5.10;4.63;;;26.40;57.60;;;;;;5105811;28;20078;-41
2021/05/24 03:26:37;;;;;;;4.85;4.05;;;26.40;57.60;;;;;;5105985;28;20027;-39
2021/05/24 03:29:04;;;;;;;4.68;4.20;;;26.40;57.50;;;;;;5102606;28;20032;-40
2021/05/24 03:31:30;;;;;;;4.90;4.50;;;26.40;57.50;;;;;;5105970;28;20560;-43
2021/05/24 03:33:57;;;;;;;5.07;4.57;;;26.40;57.40;;;;;;5105674;28;20028;-40
2021/05/24 03:36:23;;;;;;;5.97;5.37;;;26.30;57.40;;;;;;5092827;28;20092;-40
2021/05/24 03:38:49;;;;;;;6.73;5.53;;;26.30;57.40;;;;;;5097764;28;20337;-40
2021/05/24 03:41:15;;;;;;;5.50;5.00;;;26.30;57.40;;;;;;5087898;28;20040;-40
2021/05/24 03:43:44;;;;;;;5.60;5.10;;;26.20;57.30;;;;;;5084919;28;20338;-39
2021/05/24 03:46:10;;;;;;;5.97;5.40;;;26.30;57.30;;;;;;5094173;28;20080;-42
2021/05/24 03:48:37;;;;;;;5.50;5.00;;;26.20;57.30;;;;;;5105544;28;20067;-40
2021/05/24 03:51:05;;;;;;;5.65;5.13;;;26.20;57.40;;;;;;5104064;28;20151;-39
2021/05/24 03:53:31;;;;;;;5.43;4.93;;;26.20;57.30;;;;;;5105522;28;20028;-40
2021/05/24 03:55:57;;;;;;;5.10;4.70;;;26.20;57.30;;;;;;5105328;28;20024;-40
2021/05/24 03:58:23;;;;;;;6.65;5.32;;;26.20;57.30;;;;;;5105433;28;20081;-43
2021/05/24 04:00:49;;;;;;;5.93;5.43;;;26.10;57.30;;;;;;5105035;28;20547;-43
2021/05/24 04:03:16;;;;;;;5.80;5.30;;;26.10;57.80;;;;;;5105315;28;20040;-39
2021/05/24 04:05:43;;;;;;;6.30;5.70;;;26.10;57.30;;;;;;5105167;28;20042;-40
2021/05/24 04:08:09;;;;;;;6.65;6.05;;;26.10;57.40;;;;;;5105097;28;20028;-39
2021/05/24 04:10:39;;;;;;;6.95;6.00;;;26.00;57.50;;;;;;5093111;28;20047;-40
2021/05/24 04:13:05;;;;;;;6.28;5.68;;;26.00;57.50;;;;;;5084697;28;20056;-41
2021/05/24 04:15:32;;;;;;;5.77;5.27;;;26.00;57.40;;;;;;5102135;28;20031;-41
2021/05/24 04:18:01;;;;;;;6.18;5.57;;;26.00;57.60;;;;;;5105113;28;20035;-41
2021/05/24 04:20:27;;;;;;;6.25;5.65;;;26.00;57.40;;;;;;5104817;28;20117;-40
2021/05/24 04:22:53;;;;;;;5.93;5.43;;;25.90;57.30;;;;;;5104947;28;20096;-39
2021/05/24 04:25:19;;;;;;;5.80;5.30;;;25.90;57.20;;;;;;5104558;28;20024;-40
2021/05/24 04:27:46;;;;;;;6.35;5.75;;;25.90;57.30;;;;;;5105002;28;20056;-41
2021/05/24 04:30:13;;;;;;;5.90;5.30;;;25.90;57.30;;;;;;5103486;28;20576;-40
2021/05/24 04:32:40;;;;;;;6.38;5.72;;;25.90;57.10;;;;;;5093983;28;20269;-40
2021/05/24 04:35:07;;;;;;;6.25;5.65;;;25.90;57.20;;;;;;5084224;28;20493;-39
2021/05/24 04:37:34;;;;;;;5.82;5.30;;;25.80;57.10;;;;;;5085937;28;20578;-40
2021/05/24 04:40:00;;;;;;;5.95;5.38;;;25.80;57.10;;;;;;5104685;28;20143;-43
2021/05/24 04:42:26;;;;;;;6.18;5.57;;;25.80;57.10;;;;;;5104419;28;20036;-39
2021/05/24 04:44:53;;;;;;;6.13;5.53;;;25.80;57.00;;;;;;5104207;28;20036;-39
2021/05/24 04:47:19;;;;;;;6.18;5.57;;;25.80;57.00;;;;;;5104455;28;20118;-41
2021/05/24 04:49:51;;;;;;;5.78;5.28;;;25.70;57.00;;;;;;5104360;28;20043;-39
2021/05/24 04:52:17;;;;;;;5.65;5.15;;;25.70;56.80;;;;;;5104422;28;20024;-40
2021/05/24 04:54:44;;;;;;;5.82;5.22;;;25.70;57.10;;;;;;5103735;28;20032;-39
2021/05/24 04:57:11;;;;;;;6.05;5.47;;;25.70;57.20;;;;;;5104107;28;20035;-41
2021/05/24 04:59:37;;;;;;;6.43;5.78;;;25.60;57.20;;;;;;5104210;28;20095;-40
2021/05/24 05:02:03;;;;;;;6.07;5.47;;;25.60;57.20;;;;;;5103994;28;20040;-40
2021/05/24 05:04:29;;;;;;;6.38;5.78;;;25.60;57.30;;;;;;5104108;28;20043;-39
2021/05/24 05:06:57;;;;;;;5.88;5.38;;;25.60;57.20;;;;;;5103989;28;20032;-40
2021/05/24 05:09:25;;;;;;;6.30;5.70;;;25.60;57.30;;;;;;5102654;28;20039;-40
2021/05/24 05:11:54;;;;;;;6.03;5.43;;;25.50;57.30;;;;;;5103851;28;20059;-40
2021/05/24 05:14:22;;;;;;;6.10;5.50;;;25.50;57.30;;;;;;5104025;28;20046;-39
2021/05/24 05:16:48;;;;;;;6.10;5.57;;;25.50;57.30;;;;;;5103489;28;20753;-40
2021/05/24 05:19:16;;;;;;;6.28;5.72;;;25.50;57.10;;;;;;5103942;28;20032;-40
2021/05/24 05:21:43;;;;;;;6.40;5.80;;;25.50;57.10;;;;;;5103887;28;20024;-40
2021/05/24 05:24:09;;;;;;;6.72;6.05;;;25.40;57.00;;;;;;5103593;28;20082;-40
2021/05/24 05:26:36;;;;;;;5.95;5.40;;;25.40;57.10;;;;;;5103606;28;20055;-39
2021/05/24 05:29:02;;;;;;;5.75;5.18;;;25.40;57.00;;;;;;5088496;28;20033;-39
2021/05/24 05:31:28;;;;;;;6.07;5.57;;;25.40;57.10;;;;;;5102787;28;20028;-41
2021/05/24 05:33:54;;;;;;;5.65;5.15;;;25.40;57.10;;;;;;5081955;28;20031;-40
2021/05/24 05:36:21;;;;;;;5.93;5.32;;;25.30;57.00;;;;;;5083124;28;20025;-39
2021/05/24 05:38:47;;;;;;;6.50;5.90;;;25.30;57.10;;;;;;5095087;28;20039;-41
2021/05/24 05:41:13;;;;;;;6.80;5.47;;;25.30;57.00;;;;;;5088883;28;20043;-41
2021/05/24 05:43:39;;;;;;;6.80;6.07;;;25.30;57.10;;;;;;5088730;28;20112;-40
2021/05/24 05:46:06;;;;;;;5.78;5.20;;;25.30;57.10;;;;;;5102944;28;20084;-39
2021/05/24 05:48:32;;;;;;;6.03;5.43;;;25.20;57.10;;;;;;5103324;28;20035;-39
2021/05/24 05:50:58;;;;;;;6.47;5.88;;;25.20;57.10;;;;;;5103240;28;20064;-39
2021/05/24 05:53:24;;;;;;;6.27;5.67;;;25.20;57.30;;;;;;5103291;28;20053;-40
2021/05/24 05:55:52;;;;;;;6.55;5.95;;;25.20;57.30;;;;;;5103227;28;20039;-40
2021/05/24 05:58:21;;;;;;;6.22;5.63;;;25.20;57.40;;;;;;5103282;28;20459;-40
2021/05/24 06:00:47;;;;;;;6.68;5.82;;;25.10;57.30;;;;;;5102929;28;20024;-40
2021/05/24 06:03:15;;;;;;;6.25;5.60;;;25.10;57.40;;;;;;5103122;28;20036;-46
2021/05/24 06:05:41;;;;;;;6.65;6.05;;;25.10;57.30;;;;;;5102949;28;20054;-39
2021/05/24 06:08:07;;;;;;;8.70;6.50;;;25.10;57.40;;;;;;5102371;28;20087;-39
2021/05/24 06:10:34;;;;;;;6.32;5.72;;;25.00;57.30;;;;;;5091247;28;20036;-40
2021/05/24 06:13:00;;;;;;;6.60;5.97;;;25.00;57.30;;;;;;5082824;28;20043;-40
2021/05/24 06:15:26;;;;;;;6.50;5.90;;;25.00;57.30;;;;;;5082648;28;20025;-41
2021/05/24 06:17:53;;;;;;;6.60;6.00;;;25.00;57.30;;;;;;5082485;28;20062;-39
2021/05/24 06:20:19;;;;;;;6.23;5.73;;;25.00;57.30;;;;;;5082729;28;20038;-39
2021/05/24 06:22:45;;;;;;;6.35;5.75;;;24.90;57.40;;;;;;5083996;28;20036;-40
2021/05/24 06:25:12;;;;;;;6.50;5.90;;;24.90;57.30;;;;;;5102903;28;20039;-39
2021/05/24 06:27:38;;;;;;;;;;;24.90;57.40;;;;;;5103127;28;20024;-42
2021/05/24 06:30:06;;;;;;;6.30;5.70;;;24.90;57.50;;;;;;5103019;28;19908;-40
2021/05/24 06:32:32;;;;;;;6.95;6.25;;;24.90;57.40;;;;;;5102676;28;20028;-41
2021/05/24 06:34:59;;;;;;;7.18;6.50;;;24.80;57.40;;;;;;5102869;28;20027;-40
2021/05/24 06:37:25;;;;;;;6.70;6.10;;;24.80;57.50;;;;;;5102610;28;20027;-39
2021/05/24 06:39:51;;;;;;;6.55;5.95;;;24.80;57.50;;;;;;5102697;28;20109;-39
2021/05/24 06:42:17;;;;;;;7.05;6.35;;;24.80;57.60;;;;;;5102710;28;20378;-40
2021/05/24 06:44:44;;;;;;;7.00;6.32;;;24.80;57.60;;;;;;5102375;28;20132;-40
2021/05/24 06:47:10;;;;;;;7.60;6.35;;;24.80;57.60;;;;;;5102246;28;20024;-39
2021/05/24 06:49:36;;;;;;;6.68;6.07;;;24.70;57.50;;;;;;5102755;28;20037;-41
2021/05/24 06:52:03;;;;;;;6.90;6.18;;;24.70;57.50;;;;;;5102492;28;20119;-40
2021/05/24 06:54:29;;;;;;;6.05;5.40;;;24.70;57.50;;;;;;5102734;28;20115;-39
2021/05/24 06:56:55;;;;;;;7.07;6.38;;;24.70;58.20;;;;;;5102447;28;20492;-39
2021/05/24 06:59:21;;;;;;;6.70;6.10;;;24.60;57.70;;;;;;5102624;28;20035;-40
2021/05/24 07:01:48;;;;;;;6.32;5.72;;;24.60;57.60;;;;;;5102446;28;20060;-39
2021/05/24 07:04:14;;;;;;;6.90;6.20;;;24.60;57.60;;;;;;5102572;28;20037;-39
2021/05/24 07:06:40;;;;;;;6.72;6.13;;;24.60;57.60;;;;;;5102285;28;20031;-39
2021/05/24 07:09:06;;;;;;;7.13;6.43;;;24.60;57.60;;;;;;5102489;28;20044;-39
2021/05/24 07:11:33;;;;;;;6.43;5.83;;;24.60;57.70;;;;;;5102260;28;20068;-40
2021/05/24 07:13:59;;;;;;;7.07;6.38;;;24.50;57.60;;;;;;5093644;28;20286;-39
2021/05/24 07:16:25;;;;;;;6.93;6.15;;;24.50;57.70;;;;;;5102018;28;20461;-40
2021/05/24 07:18:51;;;;;;;6.35;5.75;;;24.50;57.60;;;;;;5103823;28;20039;-39
2021/05/24 07:21:17;;;;;;;6.05;5.47;;;24.50;57.70;;;;;;5106158;28;20051;-39
2021/05/24 07:23:43;;;;;;;6.43;5.82;;;24.50;57.70;;;;;;5102618;28;20044;-40
2021/05/24 07:26:10;;;;;;;6.85;6.20;;;24.50;57.80;;;;;;5085943;28;20080;-39
2021/05/24 07:28:36;;;;;;;7.65;6.55;;;24.40;57.70;;;;;;5085625;28;20039;-40
2021/05/24 07:31:02;;;;;;;7.13;6.43;;;24.40;57.70;;;;;;5102900;28;20036;-39
2021/05/24 07:33:28;;;;;;;6.43;5.82;;;24.40;57.70;;;;;;5105054;28;20058;-39
2021/05/24 07:35:55;;;;;;;7.55;6.35;;;24.40;57.80;;;;;;5106190;28;20054;-39
2021/05/24 07:38:21;;;;;;;6.88;6.20;;;24.40;57.80;;;;;;5095473;28;20025;-40
2021/05/24 07:40:47;;;;;;;7.05;6.35;;;24.40;57.80;;;;;;5099189;28;20055;-39
2021/05/24 07:43:14;;;;;;;6.80;6.10;;;24.30;57.80;;;;;;5105841;28;20602;-40
2021/05/24 07:45:40;;;;;;;6.60;6.00;;;24.30;57.80;;;;;;5105566;28;20024;-39
2021/05/24 07:48:06;;;;;;;6.68;6.07;;;24.30;57.90;;;;;;5105401;28;20028;-40
2021/05/24 07:50:32;;;;;;;7.20;6.50;;;24.30;57.90;;;;;;5105684;28;20048;-40
2021/05/24 07:52:58;;;;;;;7.22;6.53;;;24.30;57.90;;;;;;5105460;28;20056;-40
2021/05/24 07:55:25;;;;;;;6.93;6.22;;;24.20;58.00;;;;;;5105373;28;20055;-41
2021/05/24 07:57:51;;;;;;;6.55;5.95;;;24.20;57.90;;;;;;5105285;28;20067;-40
2021/05/24 08:00:18;;;;;;;7.43;6.53;;;24.20;57.90;;;;;;5105328;28;20024;-40
2021/05/24 08:02:45;;;;;;;7.22;6.60;;;24.10;57.90;;;;;;5103907;28;20073;-39
2021/05/24 08:05:12;;;;;;;6.75;6.15;;;24.20;58.00;;;;;;5103951;28;20032;-39
2021/05/24 08:07:39;;;;;;;6.82;6.20;;;24.10;58.00;;;;;;5105096;28;20024;-39
2021/05/24 08:10:06;;;;;;;6.47;5.87;;;24.10;58.00;;;;;;5105152;28;20040;-39
2021/05/24 08:12:36;;;;;;;6.95;6.22;;;24.10;58.00;;;;;;5105168;28;20032;-40
2021/05/24 08:15:02;;;;;;;6.60;5.90;;;24.10;58.00;;;;;;5105344;28;20032;-41
2021/05/24 08:17:29;;;;;;;6.93;6.20;;;24.10;58.10;;;;;;5104878;28;20043;-38
2021/05/24 08:19:55;;;;;;;6.30;5.70;;;24.10;58.10;;;;;;5104960;28;20370;-40
2021/05/24 08:22:21;;;;;;;6.28;5.68;;;24.00;58.10;;;;;;5105105;28;20024;-39
2021/05/24 08:24:47;;;;;;;6.57;5.97;;;24.00;58.10;;;;;;5105026;28;20036;-41
2021/05/24 08:27:13;;;;;;;7.65;6.85;;;24.00;58.10;;;;;;5104941;28;20028;-39
2021/05/24 08:29:39;;;;;;;6.93;6.30;;;24.00;58.20;;;;;;5104163;28;20066;-40
2021/05/24 08:32:06;;;;;;;6.57;5.97;;;24.00;58.20;;;;;;5104339;28;20035;-40
2021/05/24 08:34:32;;;;;;;7.10;6.40;;;24.00;58.20;;;;;;5104523;28;20035;-39
2021/05/24 08:36:58;;;;;;;7.15;6.45;;;23.90;58.20;;;;;;5104722;28;20042;-39
2021/05/24 08:39:24;;;;;;;7.35;6.65;;;23.90;58.20;;;;;;5104189;28;20024;-40
2021/05/24 08:41:51;;;;;;;7.03;6.38;;;23.90;58.30;;;;;;5104489;28;20126;-40
2021/05/24 08:44:17;;;;;;;;;;;23.90;58.30;;;;;;5086679;28;20040;-39
2021/05/24 08:46:43;;;;;;;7.05;6.35;;;23.90;58.30;;;;;;5102800;28;19915;-39
2021/05/24 08:49:10;;;;;;;7.03;6.30;;;23.90;58.30;;;;;;5085630;28;20079;-40
2021/05/24 08:51:36;;;;;;;6.47;5.80;;;23.80;58.40;;;;;;5103758;28;20056;-39
2021/05/24 08:54:03;;;;;;;7.78;6.97;;;23.80;58.40;;;;;;5104342;28;20024;-40
2021/05/24 08:56:29;;;;;;;7.40;6.57;;;23.80;58.40;;;;;;5103624;28;20043;-40
2021/05/24 08:58:59;;;;;;;6.85;6.20;;;23.80;58.40;;;;;;5103730;28;20035;-41
2021/05/24 09:01:25;;;;;;;6.88;6.28;;;23.80;58.40;;;;;;5083707;28;20020;-40
2021/05/24 09:04:03;;;;;;;6.57;5.88;;;23.70;58.40;;;;;;5083666;28;20085;-40
2021/05/24 09:06:43;;;;;;;6.72;6.03;;;23.70;58.40;;;;;;5083593;28;20092;-40
2021/05/24 09:09:10;;;;;;;6.85;6.18;;;23.70;58.50;;;;;;5098320;28;20036;-41
2021/05/24 09:11:37;;;;;;;7.00;6.30;;;23.70;58.40;;;;;;5103846;28;20028;-42
2021/05/24 09:14:31;;;;;;;7.25;6.55;;;23.70;58.50;;;;;;5103886;28;20032;-41
2021/05/24 09:17:01;;;;;;;6.80;6.20;;;23.70;58.50;;;;;;5103121;28;20028;-40
2021/05/24 09:19:29;;;;;;;7.25;6.55;;;23.60;58.50;;;;;;5102032;28;20027;-40
2021/05/24 09:22:00;;;;;;;7.28;6.57;;;23.60;58.50;;;;;;5103731;28;20195;-40
2021/05/24 09:24:34;;;;;;;7.38;6.68;;;23.60;58.50;;;;;;5103387;28;20035;-39
2021/05/24 09:27:01;;;;;;;6.75;6.15;;;23.60;58.60;;;;;;5103606;28;20020;-41
2021/05/24 09:29:39;;;;;;;6.93;6.28;;;23.60;58.60;;;;;;5103120;28;20035;-40
2021/05/24 09:32:12;;;;;;;7.55;6.85;;;23.60;58.60;;;;;;5103367;28;20054;-41
2021/05/24 09:34:39;;;;;;;7.55;6.85;;;23.50;58.60;;;;;;5103562;28;20354;-41
2021/05/24 09:37:05;;;;;;;6.85;6.25;;;23.50;58.60;;;;;;5103432;28;20047;-40
2021/05/24 09:39:32;;;;;;;6.95;6.35;;;23.50;58.60;;;;;;5096529;28;20033;-40
2021/05/24 09:42:01;;;;;;;7.28;6.65;;;23.50;59.20;;;;;;5100097;28;20051;-40
2021/05/24 09:44:29;;;;;;;7.47;6.53;;;23.50;58.70;;;;;;5101777;28;20036;-40
2021/05/24 09:46:56;;;;;;;6.63;6.03;;;23.50;58.70;;;;;;5102939;28;20512;-41
2021/05/24 09:49:25;;;;;;;6.50;5.90;;;23.50;58.80;;;;;;5102934;28;20392;-43
2021/05/24 09:51:52;;;;;;;6.68;6.05;;;23.40;58.70;;;;;;5102962;28;20040;-39
2021/05/24 09:54:18;;;;;;;7.35;6.65;;;23.40;58.80;;;;;;5102802;28;20032;-40
2021/05/24 09:56:47;;;;;;;7.60;6.80;;;23.40;58.80;;;;;;5103204;28;20028;-41
2021/05/24 09:59:18;;;;;;;7.20;6.10;;;23.40;58.80;;;;;;5101552;28;20481;-40
2021/05/24 10:01:51;;;;;;;6.78;6.15;;;23.30;58.80;;;;;;5102736;28;20028;-38
2021/05/24 10:04:19;;;;;;;7.38;6.68;;;23.30;58.80;;;;;;5103011;28;20044;-40
2021/05/24 10:06:46;;;;;;;6.90;6.20;;;23.30;58.80;;;;;;5103073;28;20066;-40
2021/05/24 10:09:13;;;;;;;7.60;6.80;;;23.30;58.90;;;;;;5102687;28;20077;-42
2021/05/24 10:11:44;;;;;;;6.95;6.28;;;23.30;58.90;;;;;;5101580;28;20031;-41
2021/05/24 10:14:15;;;;;;;7.18;6.47;;;23.30;58.90;;;;;;5102719;28;20025;-40
2021/05/24 10:16:47;;;;;;;6.82;6.22;;;23.30;58.90;;;;;;5101124;28;20032;-40
2021/05/24 10:19:17;;;;;;;7.75;6.95;;;23.30;58.90;;;;;;5101037;28;20028;-40
2021/05/24 10:21:47;;;;;;;7.20;6.50;;;23.20;58.90;;;;;;5102706;28;20464;-41
2021/05/24 10:24:13;;;;;;;7.55;6.85;;;23.20;58.90;;;;;;5101009;28;20047;-40
2021/05/24 10:26:41;;;;;;;7.28;6.57;;;23.20;59.00;;;;;;5102613;28;20028;-48
2021/05/24 10:29:07;;;;;;;7.05;6.35;;;23.20;58.90;;;;;;5101155;28;20054;-41
2021/05/24 10:31:34;;;;;;;7.05;6.45;;;23.20;59.00;;;;;;5101139;28;20024;-39
2021/05/24 10:34:17;;;;;;;7.22;6.55;;;23.20;59.10;;;;;;5102426;28;20089;-41
2021/05/24 10:36:43;;;;;;;6.63;6.03;;;23.10;59.00;;;;;;5101263;28;20081;-40
2021/05/24 10:39:15;;;;;;;7.45;6.75;;;23.10;59.10;;;;;;5102517;28;20028;-40
2021/05/24 10:41:48;;;;;;;6.90;6.22;;;23.10;59.10;;;;;;5102567;28;20027;-40
2021/05/24 10:44:17;;;;;;;7.40;6.70;;;23.10;59.10;;;;;;5102226;28;20483;-39
2021/05/24 10:46:43;;;;;;;7.07;6.38;;;23.10;59.20;;;;;;5102229;28;20020;-40
2021/05/24 10:49:12;;;;;;;7.43;6.60;;;23.10;59.10;;;;;;5102602;28;20032;-40
2021/05/24 10:51:47;;;;;;;7.20;6.50;;;23.10;59.20;;;;;;5101891;28;20310;-41
2021/05/24 10:54:20;;;;;;;6.68;6.07;;;23.00;59.20;;;;;;5104619;28;20024;-42
2021/05/24 10:56:58;;;;;;;6.88;6.28;;;23.00;59.20;;;;;;5106298;28;20035;-40
2021/05/24 11:02:33;;;;;;;7.78;7.03;;;23.00;59.30;;;;;;5100185;28;20044;-40
2021/05/24 11:05:09;;;;;;;7.20;6.50;;;23.00;59.30;;;;;;5085505;28;20052;-41
2021/05/24 11:07:39;;;;;;;7.47;6.63;;;23.00;59.20;;;;;;5087575;28;20084;-42
2021/05/24 11:10:17;;;;;;;7.07;6.45;;;22.90;59.20;;;;;;5105774;28;20035;-41
2021/05/24 11:12:46;;;;;;;7.07;6.38;;;22.90;59.20;;;;;;5103139;28;20115;-41
2021/05/24 11:15:31;;;;;;;7.53;6.72;;;22.90;59.30;;;;;;5106004;28;20023;-41
2021/05/24 11:18:00;;;;;;;6.90;6.20;;;22.90;59.30;;;;;;5105702;28;20020;-40
2021/05/24 11:20:48;;;;;;;6.88;6.28;;;22.90;59.30;;;;;;5105468;28;20042;-41
2021/05/24 11:26:14;;;;;;;7.23;6.57;;;22.80;59.30;;;;;;5106083;28;20028;-41
2021/05/24 11:28:51;;;;;;;7.05;6.35;;;22.80;59.40;;;;;;5098023;28;20034;-41
2021/05/24 11:31:24;;;;;;;7.10;6.38;;;22.80;59.40;;;;;;5105365;28;20042;-41
2021/05/24 11:33:54;;;;;;;6.65;6.05;;;22.80;59.40;;;;;;5103800;28;20088;-40
2021/05/24 11:36:36;;;;;;;6.55;5.95;;;22.80;59.40;;;;;;5105656;28;20034;-41
2021/05/24 11:39:12;;;;;;;7.03;6.38;;;22.80;59.50;;;;;;5105494;28;20024;-42
2021/05/24 11:41:55;;;;;;;6.40;5.80;;;22.80;59.50;;;;;;5105460;28;20020;-42
2021/05/24 11:44:39;;;;;;;6.97;6.32;;;22.70;59.50;;;;;;5088849;28;20059;-40
2021/05/24 11:47:07;;;;;;;6.57;5.88;;;22.70;59.40;;;;;;5084865;28;20060;-41
2021/05/24 11:49:41;;;;;;;6.28;5.68;;;22.70;59.40;;;;;;5086244;28;20043;-41
2021/05/24 11:52:12;;;;;;;6.97;6.38;;;22.70;59.50;;;;;;5084552;28;20045;-40
2021/05/24 11:54:39;;;;;;;7.18;6.53;;;22.70;59.50;;;;;;5084938;28;20028;-41
2021/05/24 11:57:07;;;;;;;6.80;6.10;;;22.70;59.50;;;;;;5084962;28;20088;-41
2021/05/24 11:59:33;;;;;;;7.10;6.43;;;22.70;59.50;;;;;;5089893;28;20020;-41
2021/05/24 12:02:00;;;;;;;7.23;6.40;;;22.70;59.50;;;;;;5098347;28;20035;-44
2021/05/24 12:04:28;;;;;;;7.22;6.53;;;22.70;59.50;;;;;;5084114;28;20059;-43
2021/05/24 12:07:08;;;;;;;6.88;6.22;;;22.60;59.50;;;;;;5084281;28;20039;-41
2021/05/24 12:09:41;;;;;;;7.03;6.18;;;22.60;59.50;;;;;;5103084;28;20031;-41
2021/05/24 12:12:13;;;;;;;7.05;6.32;;;22.60;59.50;;;;;;5103384;28;20028;-40
2021/05/24 12:14:44;;;;;;;6.97;6.38;;;22.60;59.60;;;;;;5104781;28;20024;-40
2021/05/24 12:17:18;;;;;;;6.75;6.15;;;22.60;59.60;;;;;;5104777;28;20039;-40
2021/05/24 12:19:46;;;;;;;7.10;6.40;;;22.60;59.60;;;;;;5104870;28;20067;-40
2021/05/24 12:22:13;;;;;;;6.57;5.97;;;22.60;59.60;;;;;;5104659;28;20047;-40
2021/05/24 12:24:41;;;;;;;6.63;5.93;;;22.60;59.60;;;;;;5102858;28;20044;-42
2021/05/24 12:27:08;;;;;;;6.82;6.15;;;22.60;59.60;;;;;;5104813;28;20024;-43
2021/05/24 12:30:04;;;;;;;6.70;6.10;;;22.60;59.60;;;;;;5104815;28;20048;-41
2021/05/24 12:32:34;;;;;;;6.25;5.65;;;22.60;59.60;;;;;;5103943;28;20032;-40
2021/05/24 12:35:04;;;;;;;6.30;5.70;;;22.60;59.60;;;;;;5104466;28;20032;-43
2021/05/24 12:37:30;;;;;;;6.35;5.75;;;22.60;59.60;;;;;;5102886;28;20031;-42
2021/05/24 12:39:56;;;;;;;6.32;5.72;;;22.60;59.60;;;;;;5103090;28;20178;-41
2021/05/24 12:42:22;;;;;;;6.93;6.30;;;22.60;59.60;;;;;;5104023;28;20024;-41
2021/05/24 12:44:49;;;;;;;6.70;6.10;;;22.60;59.70;;;;;;5086199;28;20044;-40
2021/05/24 12:47:22;;;;;;;7.17;6.47;;;22.60;59.70;;;;;;5103948;28;20028;-40
2021/05/24 12:49:48;;;;;;;6.70;6.10;;;22.60;59.70;;;;;;5104130;28;20032;-40
2021/05/24 12:52:16;;;;;;;6.75;6.05;;;22.60;59.70;;;;;;5103967;28;20024;-40
2021/05/24 12:54:51;;;;;;;6.43;5.82;;;22.60;59.70;;;;;;5104018;28;20020;-40
2021/05/24 12:57:19;;;;;;;6.68;6.07;;;22.60;59.70;;;;;;5104090;28;20035;-41